createdAt,value
2018-11-13T00:01:04.136Z,10.42
2018-11-13T00:03:31.560Z,10.35
2018-11-13T00:05:58.985Z,10.37
2018-11-13T00:08:26.396Z,10.37
2018-11-13T00:10:53.814Z,10.39
2018-11-13T00:13:21.232Z,10.39
2018-11-13T00:15:48.668Z,10.39
2018-11-13T00:18:16.085Z,10.34
2018-11-13T00:20:43.894Z,10.29
2018-11-13T00:23:11.278Z,10.34
2018-11-13T00:25:38.693Z,10.35
2018-11-13T00:28:06.129Z,10.28
2018-11-13T00:30:33.525Z,10.33
2018-11-13T00:33:00.969Z,10.28
2018-11-13T00:35:28.384Z,10.22
2018-11-13T00:37:56.228Z,10.15
2018-11-13T00:40:23.638Z,10.16
2018-11-13T00:42:51.104Z,10.18
2018-11-13T00:45:18.618Z,10.13
2018-11-13T00:47:46.044Z,10.09
2018-11-13T00:50:14.395Z,10.12
2018-11-13T00:52:42.587Z,10.14
2018-11-13T00:55:10.013Z,10.07
2018-11-13T00:57:37.448Z,10.08
2018-11-13T01:00:04.969Z,10.07
2018-11-13T01:02:32.341Z,10.03
2018-11-13T01:04:59.814Z,10.03
2018-11-13T01:07:27.177Z,10.01
2018-11-13T01:09:54.581Z,10.05
2018-11-13T01:12:22.006Z,10.02
2018-11-13T01:14:49.464Z,10.02
2018-11-13T01:17:17.486Z,10.01
2018-11-13T01:19:44.941Z,10.01
2018-11-13T01:22:12.456Z,10.00
2018-11-13T01:24:39.881Z,10.00
2018-11-13T01:27:07.305Z,9.95
2018-11-13T01:29:35.136Z,9.96
2018-11-13T01:32:02.645Z,9.94
2018-11-13T01:34:30.094Z,9.93
2018-11-13T01:36:57.584Z,9.94
2018-11-13T01:39:25.069Z,9.94
2018-11-13T01:41:52.486Z,9.85
2018-11-13T01:44:19.898Z,9.87
2018-11-13T01:46:47.312Z,9.89
2018-11-13T01:49:14.908Z,9.87
2018-11-13T01:51:42.320Z,9.87
2018-11-13T01:54:09.747Z,9.87
2018-11-13T01:56:37.168Z,9.78
2018-11-13T01:59:04.576Z,9.85
2018-11-13T02:01:31.984Z,9.85
2018-11-13T02:03:59.405Z,9.85
2018-11-13T02:06:26.816Z,9.82
2018-11-13T02:08:54.229Z,9.81
2018-11-13T02:11:21.641Z,9.75
2018-11-13T02:13:49.181Z,9.77
2018-11-13T02:16:16.590Z,9.78
2018-11-13T02:18:44.008Z,9.76
2018-11-13T02:21:11.416Z,9.75
2018-11-13T02:23:38.884Z,9.69
2018-11-13T02:26:06.312Z,9.75
2018-11-13T02:28:33.741Z,9.77
2018-11-13T02:31:01.757Z,9.71
2018-11-13T02:33:29.182Z,9.72
2018-11-13T02:35:56.580Z,9.72
2018-11-13T02:38:24.002Z,9.72
2018-11-13T02:40:51.408Z,9.71
2018-11-13T02:43:18.837Z,9.68
2018-11-13T02:45:46.249Z,9.68
2018-11-13T02:48:13.678Z,9.63
2018-11-13T02:50:41.119Z,9.63
2018-11-13T02:53:08.540Z,9.66
2018-11-13T02:55:35.948Z,9.66
2018-11-13T02:58:03.358Z,9.67
2018-11-13T03:00:30.766Z,9.66
2018-11-13T03:02:58.212Z,9.68
2018-11-13T03:05:25.799Z,9.67
2018-11-13T03:07:53.208Z,9.62
2018-11-13T03:10:21.097Z,9.67
2018-11-13T03:12:48.631Z,9.64
2018-11-13T03:15:17.236Z,9.69
2018-11-13T03:17:44.657Z,9.67
2018-11-13T03:20:13.269Z,9.70
2018-11-13T03:22:41.129Z,9.72
2018-11-13T03:25:08.565Z,9.76
2018-11-13T03:27:36.171Z,9.74
2018-11-13T03:30:03.580Z,9.69
2018-11-13T03:32:30.997Z,9.74
2018-11-13T03:34:58.404Z,9.77
2018-11-13T03:37:25.818Z,9.73
2018-11-13T03:39:53.233Z,9.77
2018-11-13T03:42:20.631Z,9.77
2018-11-13T03:44:48.061Z,9.79
2018-11-13T03:47:15.529Z,9.74
2018-11-13T03:49:42.939Z,9.78
2018-11-13T03:52:10.457Z,9.80
2018-11-13T03:54:37.865Z,9.77
2018-11-13T03:57:05.277Z,9.77
2018-11-13T03:59:32.728Z,9.79
2018-11-13T04:02:00.136Z,9.77
2018-11-13T04:04:27.628Z,9.72
2018-11-13T04:06:55.032Z,9.72
2018-11-13T04:09:22.448Z,9.70
2018-11-13T04:11:49.857Z,9.70
2018-11-13T04:14:17.257Z,9.66
2018-11-13T04:16:44.648Z,9.72
2018-11-13T04:19:12.057Z,9.71
2018-11-13T04:21:39.456Z,9.70
2018-11-13T04:24:07.079Z,9.74
2018-11-13T04:26:34.488Z,9.70
2018-11-13T04:29:01.900Z,9.66
2018-11-13T04:31:29.351Z,9.70
2018-11-13T04:33:57.016Z,9.63
2018-11-13T04:36:24.648Z,9.64
2018-11-13T04:38:52.241Z,9.67
2018-11-13T04:41:19.946Z,9.66
2018-11-13T04:43:47.441Z,9.64
2018-11-13T04:46:14.844Z,9.64
2018-11-13T04:48:42.457Z,9.60
2018-11-13T04:51:09.941Z,9.64
2018-11-13T04:53:37.354Z,9.58
2018-11-13T04:56:04.744Z,9.64
2018-11-13T04:58:32.173Z,9.61
2018-11-13T05:00:59.589Z,9.66
2018-11-13T05:03:26.996Z,9.71
2018-11-13T05:05:54.414Z,9.69
2018-11-13T05:08:21.834Z,9.72
2018-11-13T05:10:49.320Z,9.74
2018-11-13T05:13:16.759Z,9.71
2018-11-13T05:15:44.206Z,9.74
2018-11-13T05:18:11.610Z,9.74
2018-11-13T05:20:39.084Z,9.75
2018-11-13T05:23:06.520Z,9.74
2018-11-13T05:25:33.908Z,9.75
2018-11-13T05:28:01.308Z,9.74
2018-11-13T05:30:28.724Z,9.70
2018-11-13T05:32:56.129Z,9.73
2018-11-13T05:35:23.548Z,9.79
2018-11-13T05:37:50.996Z,9.86
2018-11-13T05:40:19.807Z,9.90
2018-11-13T05:42:47.372Z,9.90
2018-11-13T05:45:16.153Z,9.89
2018-11-13T05:47:50.189Z,9.92
2018-11-13T05:50:18.316Z,9.86
2018-11-13T05:52:46.934Z,9.85
2018-11-13T05:55:14.985Z,9.91
2018-11-13T05:57:42.396Z,9.93
2018-11-13T06:00:09.820Z,9.95
2018-11-13T06:02:37.477Z,9.88
2018-11-13T06:05:04.941Z,9.94
2018-11-13T06:07:32.352Z,9.95
2018-11-13T06:09:59.855Z,9.98
2018-11-13T06:12:27.287Z,9.92
2018-11-13T06:14:54.772Z,9.95
2018-11-13T06:17:22.229Z,9.89
2018-11-13T06:19:49.661Z,9.92
2018-11-13T06:22:17.213Z,9.91
2018-11-13T06:24:44.629Z,9.91
2018-11-13T06:27:12.126Z,9.99
2018-11-13T06:29:39.591Z,9.99
2018-11-13T06:32:07.319Z,10.01
2018-11-13T06:34:34.807Z,10.00
2018-11-13T06:37:02.575Z,9.99
2018-11-13T06:39:30.088Z,10.03
2018-11-13T06:41:57.508Z,10.06
2018-11-13T06:44:24.920Z,10.04
2018-11-13T06:46:52.361Z,10.02
2018-11-13T06:49:19.818Z,10.05
2018-11-13T06:51:47.184Z,10.00
2018-11-13T06:54:14.610Z,10.04
2018-11-13T06:56:42.038Z,10.08
2018-11-13T06:59:09.453Z,10.10
2018-11-13T07:01:36.881Z,10.10
2018-11-13T07:04:04.329Z,10.13
2018-11-13T07:06:31.864Z,10.17
2018-11-13T07:08:59.317Z,10.20
2018-11-13T07:11:26.892Z,10.20
2018-11-13T07:13:54.282Z,10.20
2018-11-13T07:16:21.714Z,10.26
2018-11-13T07:18:49.136Z,10.25
2018-11-13T07:21:16.597Z,10.19
2018-11-13T07:23:44.020Z,10.25
2018-11-13T07:26:11.556Z,10.25
2018-11-13T07:28:38.996Z,10.30
2018-11-13T07:31:06.455Z,10.30
2018-11-13T07:33:33.930Z,10.26
2018-11-13T07:36:01.307Z,10.26
2018-11-13T07:38:28.729Z,10.31
2018-11-13T07:40:56.184Z,10.33
2018-11-13T07:43:23.591Z,10.34
2018-11-13T07:45:51.143Z,10.32
2018-11-13T07:48:18.557Z,10.32
2018-11-13T07:50:46.022Z,10.34
2018-11-13T07:53:13.534Z,10.33
2018-11-13T07:55:40.961Z,10.39
2018-11-13T07:58:08.506Z,10.40
2018-11-13T08:00:35.929Z,10.39
2018-11-13T08:03:03.364Z,10.40
2018-11-13T08:05:30.805Z,10.49
2018-11-13T08:07:58.440Z,10.51
2018-11-13T08:10:25.869Z,10.59
2018-11-13T08:12:53.377Z,10.66
2018-11-13T08:15:20.702Z,10.57
2018-11-13T08:17:48.169Z,10.50
2018-11-13T08:20:16.199Z,10.60
2018-11-13T08:22:44.073Z,10.67
2018-11-13T08:25:11.759Z,10.66
2018-11-13T08:27:39.973Z,10.61
2018-11-13T08:30:07.373Z,10.63
2018-11-13T08:32:34.795Z,10.62
2018-11-13T08:35:02.258Z,10.65
2018-11-13T08:37:29.656Z,10.70
2018-11-13T08:39:57.088Z,10.71
2018-11-13T08:42:24.716Z,10.75
2018-11-13T08:44:52.349Z,10.79
2018-11-13T08:47:19.779Z,10.83
2018-11-13T08:49:47.204Z,10.76
2018-11-13T08:52:14.624Z,10.94
2018-11-13T08:54:42.076Z,11.02
2018-11-13T08:57:09.512Z,11.05
2018-11-13T08:59:36.999Z,11.06
2018-11-13T09:02:04.544Z,11.18
2018-11-13T09:04:31.978Z,11.01
2018-11-13T09:06:59.462Z,11.05
2018-11-13T09:09:26.873Z,10.95
2018-11-13T09:11:54.471Z,10.97
2018-11-13T09:14:21.987Z,10.92
2018-11-13T09:16:49.451Z,10.94
2018-11-13T09:19:17.035Z,10.97
2018-11-13T09:21:44.351Z,11.11
2018-11-13T09:24:11.741Z,11.11
2018-11-13T09:26:39.157Z,11.03
2018-11-13T09:29:06.685Z,11.04
2018-11-13T09:31:35.010Z,10.97
2018-11-13T09:34:02.417Z,11.06
2018-11-13T09:36:29.884Z,11.10
2018-11-13T09:38:57.308Z,11.09
2018-11-13T09:41:24.725Z,11.00
2018-11-13T09:43:52.245Z,11.04
2018-11-13T09:46:19.723Z,11.08
2018-11-13T09:48:47.121Z,11.00
2018-11-13T09:51:14.532Z,11.03
2018-11-13T09:53:42.041Z,10.99
2018-11-13T09:56:09.409Z,10.99
2018-11-13T09:58:36.824Z,10.99
2018-11-13T10:01:04.425Z,11.09
2018-11-13T10:03:32.100Z,11.04
2018-11-13T10:05:59.162Z,11.10
2018-11-13T10:08:26.508Z,11.09
2018-11-13T10:10:53.921Z,11.08
2018-11-13T10:13:21.332Z,10.99
2018-11-13T10:15:48.741Z,10.97
2018-11-13T10:18:16.401Z,10.93
2018-11-13T10:20:43.572Z,10.93
2018-11-13T10:23:10.989Z,10.91
2018-11-13T10:25:39.272Z,10.92
2018-11-13T10:28:06.700Z,11.01
2018-11-13T10:30:34.165Z,10.93
2018-11-13T10:33:01.580Z,10.99
2018-11-13T10:35:29.006Z,10.89
2018-11-13T10:37:56.425Z,10.82
2018-11-13T10:40:24.214Z,10.73
2018-11-13T10:42:52.044Z,10.82
2018-11-13T10:45:22.042Z,10.76
2018-11-13T10:47:49.540Z,10.74
2018-11-13T10:50:17.586Z,10.85
2018-11-13T10:52:45.055Z,10.77
2018-11-13T10:55:12.684Z,10.73
2018-11-13T10:57:40.859Z,10.69
2018-11-13T11:00:12.820Z,10.68
2018-11-13T11:03:44.440Z,10.69
2018-11-13T11:06:11.849Z,10.71
2018-11-13T11:08:39.276Z,10.68
2018-11-13T11:11:06.663Z,10.82
2018-11-13T11:13:34.238Z,10.76
2018-11-13T11:16:01.603Z,10.78
2018-11-13T11:18:29.050Z,10.84
2018-11-13T11:20:56.510Z,10.90
2018-11-13T11:23:24.001Z,10.74
2018-11-13T11:25:51.320Z,10.86
2018-11-13T11:28:19.253Z,10.87
2018-11-13T11:30:46.813Z,10.89
2018-11-13T11:33:14.279Z,10.76
2018-11-13T11:35:41.730Z,10.77
2018-11-13T11:38:09.133Z,10.75
2018-11-13T11:40:36.628Z,10.68
2018-11-13T11:43:04.040Z,10.72
2018-11-13T11:45:31.460Z,10.69
2018-11-13T11:47:58.969Z,10.80
2018-11-13T11:50:26.400Z,10.82
2018-11-13T11:52:53.812Z,10.84
2018-11-13T11:55:21.229Z,10.96
2018-11-13T11:57:48.699Z,10.99
2018-11-13T12:00:19.588Z,10.95
2018-11-13T12:02:47.405Z,11.05
2018-11-13T12:05:14.852Z,11.04
2018-11-13T12:07:42.302Z,11.00
2018-11-13T12:10:11.168Z,10.92
2018-11-13T12:12:38.717Z,10.94
2018-11-13T12:15:06.068Z,10.93
2018-11-13T12:17:33.480Z,10.83
2018-11-13T12:20:01.358Z,10.87
2018-11-13T12:22:28.813Z,10.86
2018-11-13T12:24:56.236Z,10.81
2018-11-13T12:27:23.631Z,10.82
2018-11-13T12:29:51.215Z,10.84
2018-11-13T12:32:18.621Z,10.87
2018-11-13T12:34:46.198Z,10.89
2018-11-13T12:37:13.867Z,10.83
2018-11-13T12:39:41.304Z,10.82
2018-11-13T12:42:08.755Z,10.92
2018-11-13T12:44:36.160Z,10.94
2018-11-13T12:47:03.848Z,10.89
2018-11-13T12:49:31.419Z,10.87
2018-11-13T12:52:04.400Z,10.86
2018-11-13T12:54:31.816Z,10.86
2018-11-13T12:56:59.224Z,10.73
2018-11-13T12:59:26.640Z,10.75
2018-11-13T13:01:54.233Z,10.90
2018-11-13T13:04:21.598Z,10.98
2018-11-13T13:06:49.071Z,10.93
2018-11-13T13:09:16.476Z,10.92
2018-11-13T13:11:43.893Z,10.98
2018-11-13T13:14:15.506Z,10.93
2018-11-13T13:16:42.996Z,10.93
2018-11-13T13:19:10.416Z,10.98
2018-11-13T13:21:38.032Z,11.00
2018-11-13T13:24:06.056Z,10.93
2018-11-13T13:26:33.521Z,11.01
2018-11-13T13:29:00.964Z,11.12
2018-11-13T13:31:28.382Z,11.03
2018-11-13T13:33:55.817Z,11.00
2018-11-13T13:36:23.228Z,11.10
2018-11-13T13:38:51.085Z,11.28
2018-11-13T13:41:18.393Z,11.56
2018-11-13T13:43:45.792Z,11.59
2018-11-13T13:46:13.192Z,11.67
2018-11-13T13:48:41.593Z,11.65
2018-11-13T13:51:09.138Z,11.61
2018-11-13T13:53:36.691Z,11.54
2018-11-13T13:56:04.052Z,11.51
2018-11-13T13:58:31.524Z,11.47
2018-11-13T14:00:59.079Z,11.50
2018-11-13T14:03:26.368Z,11.38
2018-11-13T14:05:53.891Z,11.31
2018-11-13T14:08:21.452Z,11.22
2018-11-13T14:10:49.612Z,11.28
2018-11-13T14:13:17.198Z,11.29
2018-11-13T14:15:44.600Z,11.25
2018-11-13T14:18:12.756Z,11.18
2018-11-13T14:20:40.158Z,11.22
2018-11-13T14:23:07.576Z,11.15
2018-11-13T14:25:35.089Z,11.13
2018-11-13T14:28:02.485Z,11.09
2018-11-13T14:30:31.572Z,11.04
2018-11-13T14:33:01.222Z,11.01
2018-11-13T14:35:28.740Z,11.05
2018-11-13T14:37:56.033Z,10.96
2018-11-13T14:40:24.812Z,10.89
2018-11-13T14:42:52.301Z,10.94
2018-11-13T14:45:20.764Z,10.89
2018-11-13T14:47:48.920Z,10.87
2018-11-13T14:50:16.787Z,10.89
2018-11-13T14:52:44.608Z,10.82
2018-11-13T14:55:13.593Z,10.85
2018-11-13T14:57:41.215Z,10.81
2018-11-13T15:00:08.624Z,10.73
2018-11-13T15:02:36.029Z,10.69
2018-11-13T15:05:03.421Z,10.61
2018-11-13T15:07:30.924Z,10.81
2018-11-13T15:09:58.320Z,10.68
2018-11-13T15:12:25.736Z,10.73
2018-11-13T15:14:53.124Z,10.75
2018-11-13T15:17:20.526Z,10.79
2018-11-13T15:19:47.942Z,10.70
2018-11-13T15:22:15.452Z,10.64
2018-11-13T15:24:42.849Z,10.56
2018-11-13T15:27:10.255Z,10.56
2018-11-13T15:29:37.664Z,10.59
2018-11-13T15:32:05.068Z,10.55
2018-11-13T15:34:32.461Z,10.58
2018-11-13T15:36:59.878Z,10.47
2018-11-13T15:39:27.309Z,10.45
2018-11-13T15:41:54.722Z,10.36
2018-11-13T15:44:22.132Z,10.45
2018-11-13T15:46:49.521Z,10.40
2018-11-13T15:49:16.925Z,10.34
2018-11-13T15:51:44.454Z,10.26
2018-11-13T15:54:11.736Z,10.28
2018-11-13T15:56:39.170Z,10.16
2018-11-13T15:59:06.589Z,10.08
2018-11-13T16:01:34.001Z,10.14
2018-11-13T16:04:01.425Z,10.19
2018-11-13T16:06:29.013Z,10.44
2018-11-13T16:08:56.236Z,10.40
2018-11-13T16:11:23.638Z,10.56
2018-11-13T16:13:51.040Z,10.55
2018-11-13T16:16:18.432Z,10.42
2018-11-13T16:18:45.837Z,10.45
2018-11-13T16:21:13.265Z,10.46
2018-11-13T16:23:40.652Z,10.43
2018-11-13T16:26:08.065Z,10.38
2018-11-13T16:28:35.489Z,10.41
2018-11-13T16:31:02.902Z,10.48
2018-11-13T16:33:30.310Z,10.50
2018-11-13T16:35:57.710Z,10.67
2018-11-13T16:38:25.166Z,10.57
2018-11-13T16:40:52.527Z,10.41
2018-11-13T16:43:19.955Z,10.27
2018-11-13T16:45:47.337Z,10.28
2018-11-13T16:48:14.782Z,10.12
2018-11-13T16:50:42.746Z,10.00
2018-11-13T16:53:10.144Z,9.96
2018-11-13T16:55:42.949Z,9.82
2018-11-13T16:58:11.955Z,9.76
2018-11-13T17:00:39.501Z,9.71
2018-11-13T17:03:06.778Z,9.60
2018-11-13T17:05:34.301Z,9.56
2018-11-13T17:08:01.660Z,9.52
2018-11-13T17:10:31.089Z,9.57
2018-11-13T17:12:59.164Z,9.62
2018-11-13T17:15:27.855Z,9.56
2018-11-13T17:17:56.340Z,9.50
2018-11-13T17:20:23.750Z,9.69
2018-11-13T17:22:51.669Z,10.16
2018-11-13T17:25:20.452Z,10.06
2018-11-13T17:27:48.929Z,9.99
2018-11-13T17:30:19.254Z,9.91
2018-11-13T17:32:45.583Z,9.79
2018-11-13T17:35:14.276Z,9.76
2018-11-13T17:37:41.868Z,9.76
2018-11-13T17:40:09.497Z,9.83
2018-11-13T17:42:36.886Z,9.80
2018-11-13T17:45:04.292Z,9.89
2018-11-13T17:47:31.692Z,10.11
2018-11-13T17:49:59.097Z,10.00
2018-11-13T17:52:26.498Z,9.95
2018-11-13T17:54:53.897Z,10.04
2018-11-13T17:57:21.306Z,10.03
2018-11-13T17:59:48.713Z,10.02
2018-11-13T18:02:16.112Z,10.10
2018-11-13T18:04:43.520Z,9.87
2018-11-13T18:07:10.913Z,9.86
2018-11-13T18:09:38.313Z,9.92
2018-11-13T18:12:05.758Z,10.19
2018-11-13T18:14:33.245Z,10.14
2018-11-13T18:17:00.630Z,10.21
2018-11-13T18:19:28.037Z,10.12
2018-11-13T18:21:55.581Z,9.95
2018-11-13T18:24:22.855Z,9.99
2018-11-13T18:26:50.245Z,10.01
2018-11-13T18:29:17.714Z,9.96
2018-11-13T18:31:45.134Z,10.01
2018-11-13T18:34:12.547Z,9.96
2018-11-13T18:36:40.814Z,10.27
2018-11-13T18:39:08.855Z,10.32
2018-11-13T18:41:35.999Z,10.31
2018-11-13T18:44:03.604Z,10.48
2018-11-13T18:46:31.016Z,10.41
2018-11-13T18:48:58.441Z,10.30
2018-11-13T18:51:25.859Z,10.49
2018-11-13T18:53:53.314Z,10.54
2018-11-13T18:56:20.688Z,10.50
2018-11-13T18:58:48.111Z,10.53
2018-11-13T19:01:15.497Z,10.82
2018-11-13T19:03:42.914Z,10.70
2018-11-13T19:06:10.332Z,10.77
2018-11-13T19:08:37.739Z,10.64
2018-11-13T19:11:05.280Z,10.68
2018-11-13T19:13:32.564Z,10.44
2018-11-13T19:15:59.995Z,10.20
2018-11-13T19:18:27.421Z,10.17
2018-11-13T19:20:54.834Z,10.20
2018-11-13T19:23:22.513Z,10.15
2018-11-13T19:25:49.912Z,10.21
2018-11-13T19:28:17.324Z,10.14
2018-11-13T19:30:44.933Z,10.25
2018-11-13T19:33:12.324Z,10.38
2018-11-13T19:35:39.917Z,10.35
2018-11-13T19:38:07.165Z,10.33
2018-11-13T19:40:35.226Z,10.29
2018-11-13T19:43:04.139Z,10.21
2018-11-13T19:45:31.548Z,10.34
2018-11-13T19:47:58.965Z,10.29
2018-11-13T19:50:27.821Z,10.26
2018-11-13T19:52:55.085Z,10.18
2018-11-13T19:55:23.164Z,10.18
2018-11-13T19:57:50.631Z,10.07
2018-11-13T20:00:24.304Z,9.99
2018-11-13T20:02:53.346Z,9.76
2018-11-13T20:05:21.096Z,9.71
2018-11-13T20:07:48.496Z,9.72
2018-11-13T20:10:18.389Z,9.64
2018-11-13T20:12:46.816Z,9.55
2018-11-13T20:15:14.248Z,9.57
2018-11-13T20:17:41.661Z,9.44
2018-11-13T20:20:09.139Z,9.33
2018-11-13T20:22:36.577Z,9.64
2018-11-13T20:25:04.000Z,9.72
2018-11-13T20:27:31.397Z,9.91
2018-11-13T20:29:58.855Z,9.72
2018-11-13T20:32:26.253Z,9.70
2018-11-13T20:34:53.668Z,9.54
2018-11-13T20:37:21.070Z,9.48
2018-11-13T20:39:48.452Z,9.39
2018-11-13T20:42:15.870Z,9.43
2018-11-13T20:44:43.308Z,9.28
2018-11-13T20:47:10.668Z,9.34
2018-11-13T20:49:38.086Z,9.21
2018-11-13T20:52:05.484Z,9.22
2018-11-13T20:54:32.895Z,9.12
2018-11-13T20:57:00.302Z,9.08
2018-11-13T20:59:27.730Z,9.09
2018-11-13T21:01:55.181Z,9.04
2018-11-13T21:04:22.546Z,8.75
2018-11-13T21:06:49.939Z,8.83
2018-11-13T21:09:17.338Z,8.70
2018-11-13T21:11:44.828Z,8.60
2018-11-13T21:14:12.300Z,8.61
2018-11-13T21:16:39.767Z,8.70
2018-11-13T21:19:07.093Z,8.84
2018-11-13T21:21:34.489Z,8.83
2018-11-13T21:24:01.920Z,8.53
2018-11-13T21:26:29.294Z,8.35
2018-11-13T21:28:56.699Z,8.49
2018-11-13T21:31:24.100Z,8.23
2018-11-13T21:33:51.517Z,8.18
2018-11-13T21:36:18.981Z,8.13
2018-11-13T21:38:46.380Z,8.09
2018-11-13T21:41:13.780Z,7.93
2018-11-13T21:43:41.230Z,7.91
2018-11-13T21:46:08.593Z,7.79
2018-11-13T21:48:36.003Z,7.75
2018-11-13T21:51:03.449Z,7.74
2018-11-13T21:53:30.864Z,7.78
2018-11-13T21:55:58.259Z,7.79
2018-11-13T21:58:25.652Z,7.75
2018-11-13T22:00:53.048Z,7.62
2018-11-13T22:03:20.450Z,7.61
2018-11-13T22:05:47.873Z,7.55
2018-11-13T22:08:15.407Z,7.51
2018-11-13T22:10:42.772Z,7.57
2018-11-13T22:13:10.256Z,7.58
2018-11-13T22:15:37.669Z,7.55
2018-11-13T22:18:05.073Z,7.82
2018-11-13T22:20:32.472Z,7.79
2018-11-13T22:22:59.868Z,7.73
2018-11-13T22:25:27.494Z,7.88
2018-11-13T22:27:56.331Z,7.84
2018-11-13T22:30:24.854Z,8.04
2018-11-13T22:32:52.309Z,8.08
2018-11-13T22:35:20.666Z,8.06
2018-11-13T22:37:47.980Z,8.19
2018-11-13T22:40:17.453Z,8.17
2018-11-13T22:42:44.953Z,8.10
2018-11-13T22:45:14.826Z,8.10
2018-11-13T22:47:42.331Z,8.02
2018-11-13T22:50:09.752Z,7.99
2018-11-13T22:52:37.181Z,8.08
2018-11-13T22:55:04.576Z,7.98
2018-11-13T22:57:31.981Z,8.04
2018-11-13T22:59:59.460Z,8.01
2018-11-13T23:02:27.035Z,8.08
2018-11-13T23:04:54.216Z,8.00
2018-11-13T23:07:21.697Z,8.00
2018-11-13T23:09:49.113Z,7.96
2018-11-13T23:12:16.498Z,8.02
2018-11-13T23:14:43.896Z,7.98
2018-11-13T23:17:11.322Z,8.07
2018-11-13T23:19:38.712Z,8.19
2018-11-13T23:22:06.121Z,8.12
2018-11-13T23:24:33.517Z,8.50
2018-11-13T23:27:00.925Z,8.42
2018-11-13T23:29:28.343Z,8.74
2018-11-13T23:31:55.756Z,8.71
2018-11-13T23:34:23.158Z,8.69
2018-11-13T23:36:50.560Z,8.56
2018-11-13T23:39:17.956Z,8.54
2018-11-13T23:41:45.351Z,8.52
2018-11-13T23:44:12.805Z,8.46
2018-11-13T23:46:40.233Z,8.42
2018-11-13T23:49:07.648Z,8.44
2018-11-13T23:51:35.057Z,8.35
2018-11-13T23:54:02.481Z,8.23
2018-11-13T23:56:29.936Z,8.15
2018-11-13T23:58:57.289Z,8.67
